Time;durP1;ratioP1;P1;durP2;ratioP2;P2;SDS_P1;SDS_P2;PMS_P1;PMS_P2;Temp;Humidity;BMP_temperature;BMP_pressure;BME280_temperature;BME280_humidity;BME280_pressure;Samples;Min_cycle;Max_cycle;Signal;HPM_P1;HPM_P2
2022/12/05 00:01:27;;;;;;;57.38;17.98;;;;;;;0.95;100.00;101298.59;6145047;28;20476;-77
2022/12/05 00:04:23;;;;;;;53.17;16.35;;;;;;;0.85;100.00;101279.06;6144502;28;20024;-77
2022/12/05 00:07:18;;;;;;;58.55;18.35;;;;;;;0.85;100.00;101278.22;6145475;28;20507;-77
2022/12/05 00:10:13;;;;;;;57.80;16.87;;;;;;;0.86;100.00;101275.53;6143146;28;20078;-77
2022/12/05 00:13:09;;;;;;;51.43;15.83;;;;;;;0.89;100.00;101274.56;6149109;28;20040;-76
2022/12/05 00:16:07;;;;;;;47.90;15.48;;;;;;;0.74;100.00;101250.00;6132020;28;20036;-76
2022/12/05 00:19:04;;;;;;;67.97;19.23;;;;;;;0.83;100.00;101267.84;6150102;28;20127;-76
2022/12/05 00:21:59;;;;;;;57.67;18.52;;;;;;;0.92;100.00;101269.19;6148865;28;20043;-76
2022/12/05 00:24:56;;;;;;;59.93;17.27;;;;;;;0.95;100.00;101280.31;6149872;28;20380;-77
2022/12/05 00:27:51;;;;;;;55.78;18.10;;;;;;;0.78;100.00;101240.28;6149524;28;20028;-77
2022/12/05 00:30:47;;;;;;;53.20;17.53;;;;;;;0.88;100.00;101265.88;6149712;28;20493;-76
2022/12/05 00:33:43;;;;;;;47.97;17.33;;;;;;;0.94;100.00;101265.59;6148413;28;20031;-77
2022/12/05 00:36:39;;;;;;;58.63;18.88;;;;;;;0.99;100.00;101279.28;6149661;28;20434;-77
2022/12/05 00:39:34;;;;;;;52.10;17.05;;;;;;;0.95;100.00;101267.25;6149511;28;20059;-77
2022/12/05 00:42:29;;;;;;;58.53;17.53;;;;;;;0.99;100.00;101278.41;6148590;28;20035;-76
2022/12/05 00:45:24;;;;;;;52.77;16.10;;;;;;;0.79;100.00;101241.97;6149152;28;20284;-76
2022/12/05 00:48:20;;;;;;;46.97;14.60;;;;;;;0.91;100.00;101260.50;6148787;28;20101;-76
2022/12/05 00:51:22;;;;;;;53.60;15.73;;;;;;;0.91;100.00;101273.56;6149332;28;20484;-77
2022/12/05 00:54:17;;;;;;;40.08;16.35;;;;;;;1.00;100.00;101280.97;6148212;28;20422;-76
2022/12/05 00:57:13;;;;;;;49.03;15.60;;;;;;;0.98;100.00;101271.53;6148901;28;20032;-77
2022/12/05 01:00:08;;;;;;;47.80;16.73;;;;;;;0.99;100.00;101271.44;6148568;28;20035;-77
2022/12/05 01:03:04;;;;;;;42.58;15.65;;;;;;;1.05;100.00;101284.22;6147935;28;20032;-76
2022/12/05 01:05:59;;;;;;;55.83;15.47;;;;;;;0.86;100.00;101269.47;6148770;28;20046;-76
2022/12/05 01:08:56;;;;;;;50.08;14.70;;;;;;;0.82;100.00;101260.06;6148752;28;20020;-77
2022/12/05 01:11:51;;;;;;;44.97;15.30;;;;;;;0.94;100.00;101281.25;6139027;28;20031;-76
2022/12/05 01:14:46;;;;;;;39.55;13.73;;;;;;;0.93;100.00;101282.16;6148682;28;20039;-77
2022/12/05 01:17:42;;;;;;;44.43;14.17;;;;;;;1.05;100.00;101286.81;6148395;28;20028;-76
2022/12/05 01:20:41;;;;;;;42.03;13.10;;;;;;;1.07;100.00;101284.13;6130506;28;20023;-76
2022/12/05 01:23:37;;;;;;;46.60;14.82;;;;;;;0.94;100.00;101276.03;6147266;28;20038;-76
2022/12/05 01:26:32;;;;;;;33.25;13.95;;;;;;;1.03;100.00;101291.25;6147838;28;20469;-77
2022/12/05 01:29:27;;;;;;;40.85;12.80;;;;;;;0.96;100.00;101268.97;6148088;28;20060;-77
2022/12/05 01:32:23;;;;;;;44.60;14.40;;;;;;;0.99;100.00;101276.66;6147486;28;20024;-76
2022/12/05 01:35:18;;;;;;;42.17;14.57;;;;;;;0.96;100.00;101282.03;6147700;28;20472;-76
2022/12/05 01:38:13;;;;;;;47.03;14.33;;;;;;;1.01;100.00;101287.03;6147592;28;20281;-77
2022/12/05 01:41:14;;;;;;;47.50;15.03;;;;;;;0.91;100.00;101277.94;6148371;28;20040;-76
2022/12/05 01:44:09;;;;;;;44.08;14.50;;;;;;;1.04;100.00;101287.72;6147025;28;20270;-76
2022/12/05 01:47:05;;;;;;;33.17;13.10;;;;;;;0.98;100.00;101280.19;6148078;28;20497;-77
2022/12/05 01:50:00;;;;;;;49.28;15.55;;;;;;;1.02;100.00;101284.34;6147728;28;20036;-77
2022/12/05 01:52:56;;;;;;;47.53;15.95;;;;;;;0.78;100.00;101243.72;6146803;28;20114;-77
2022/12/05 01:55:52;;;;;;;46.40;13.55;;;;;;;1.01;100.00;101273.97;6129530;28;20035;-77
2022/12/05 01:58:48;;;;;;;43.58;14.55;;;;;;;0.89;100.00;101259.75;6147090;28;20150;-77
2022/12/05 02:01:43;;;;;;;36.95;14.48;;;;;;;0.92;100.00;101262.22;6146075;28;20032;-76
2022/12/05 02:04:47;;;;;;;41.20;13.57;;;;;;;1.00;100.00;101269.69;6147161;28;20115;-76
2022/12/05 02:07:44;;;;;;;33.67;12.43;;;;;;;1.01;100.00;101261.75;6146899;28;20038;-77
2022/12/05 02:10:43;;;;;;;36.30;13.65;;;;;;;1.10;100.00;101270.94;6118360;28;20129;-76
2022/12/05 02:13:47;;;;;;;39.40;12.73;;;;;;;1.06;100.00;101277.22;6146068;28;20048;-75
2022/12/05 02:17:23;;;;;;;41.67;13.23;;;;;;;1.09;100.00;101283.13;6147151;28;20040;-76
2022/12/05 02:20:49;;;;;;;38.72;14.52;;;;;;;1.06;100.00;101285.88;6101624;28;20438;-76
2022/12/05 02:24:06;;;;;;;36.50;13.15;;;;;;;1.10;100.00;101282.22;6141006;28;20442;-76
2022/12/05 02:27:26;;;;;;;39.38;11.88;;;;;;;0.98;100.00;101256.69;6146483;28;20484;-76
2022/12/05 02:30:23;;;;;;;38.88;14.57;;;;;;;0.99;100.00;101267.97;6128470;28;20060;-76
2022/12/05 02:33:18;;;;;;;42.38;12.88;;;;;;;1.07;100.00;101265.84;6145276;28;20461;-76
2022/12/05 02:36:39;;;;;;;34.43;11.70;;;;;;;0.96;100.00;101253.31;6146509;28;20039;-76
2022/12/05 02:39:59;;;;;;;33.78;12.25;;;;;;;1.03;100.00;101270.38;6128604;28;20042;-75
2022/12/05 02:43:06;;;;;;;31.30;11.63;;;;;;;0.90;100.00;101243.16;6127734;28;20061;-75
2022/12/05 02:46:07;;;;;;;31.58;11.38;;;;;;;1.07;100.00;101252.78;6146462;28;20063;-76
2022/12/05 02:49:07;;;;;;;32.85;11.30;;;;;;;0.93;100.00;101240.41;6128457;28;20043;-76
2022/12/05 02:52:06;;;;;;;32.08;11.85;;;;;;;0.98;100.00;101250.63;6128415;28;20055;-75
2022/12/05 02:55:01;;;;;;;33.88;13.77;;;;;;;1.04;100.00;101261.63;6146321;28;20434;-75
2022/12/05 02:57:59;;;;;;;31.00;11.90;;;;;;;0.94;100.00;101242.09;6128272;28;20109;-75
2022/12/05 03:00:56;;;;;;;34.90;12.93;;;;;;;0.97;100.00;101244.56;6146129;28;20040;-76
2022/12/05 03:03:52;;;;;;;28.63;11.30;;;;;;;1.11;100.00;101268.22;6127250;28;20035;-76
2022/12/05 03:06:52;;;;;;;41.42;14.00;;;;;;;0.91;100.00;101244.00;6128222;28;20400;-75
2022/12/05 03:09:55;;;;;;;31.63;12.30;;;;;;;1.05;100.00;101258.09;6124098;28;20043;-76
2022/12/05 03:12:55;;;;;;;37.05;11.77;;;;;;;1.02;100.00;101247.81;6140362;28;20032;-76
2022/12/05 03:15:54;;;;;;;29.58;11.88;;;;;;;1.03;100.00;101256.50;6145873;28;20477;-76
2022/12/05 03:19:02;;;;;;;33.83;11.40;;;;;;;1.01;100.00;101248.72;6128116;28;20487;-76
2022/12/05 03:22:01;;;;;;;37.55;12.55;;;;;;;0.95;100.00;101238.53;6145426;28;20374;-76
2022/12/05 03:24:57;;;;;;;39.60;13.32;;;;;;;1.06;100.00;101259.78;6128127;28;20085;-75
2022/12/05 03:28:01;;;;;;;30.35;10.70;;;;;;;1.04;100.00;101245.97;6145276;28;20054;-75
2022/12/05 03:31:01;;;;;;;29.58;10.73;;;;;;;1.00;100.00;101246.19;6148462;28;20078;-75
2022/12/05 03:33:58;;;;;;;29.42;10.18;;;;;;;1.04;100.00;101256.41;6126622;28;20028;-75
2022/12/05 03:36:53;;;;;;;35.83;11.05;;;;;;;1.05;100.00;101252.88;6145713;28;20115;-76
2022/12/05 03:39:57;;;;;;;25.85;10.15;;;;;;;1.08;100.00;101263.19;6127715;28;20507;-75
2022/12/05 03:43:09;;;;;;;25.00;9.30;;;;;;;1.11;100.00;101267.41;6145052;28;20143;-76
2022/12/05 03:46:12;;;;;;;28.83;10.00;;;;;;;1.07;100.00;101256.25;6150334;28;20174;-75
2022/12/05 03:49:17;;;;;;;27.52;10.93;;;;;;;0.93;100.00;101239.53;6132153;28;20055;-75
2022/12/05 03:52:19;;;;;;;24.70;9.85;;;;;;;0.97;100.00;101239.34;6132414;28;20028;-76
2022/12/05 03:55:15;;;;;;;28.30;10.80;;;;;;;1.02;100.00;101237.34;6132389;28;20032;-75
2022/12/05 03:58:18;;;;;;;30.73;9.68;;;;;;;1.08;100.00;101251.88;6150111;28;20032;-76
2022/12/05 04:01:15;;;;;;;25.70;9.02;;;;;;;1.11;100.00;101247.34;6128017;28;20039;-75
2022/12/05 04:04:14;;;;;;;22.48;10.07;;;;;;;0.99;100.00;101242.72;6149281;28;20507;-76
2022/12/05 04:07:11;;;;;;;26.45;10.68;;;;;;;1.10;100.00;101260.50;6132095;28;20097;-76
2022/12/05 04:10:11;;;;;;;23.33;8.82;;;;;;;1.02;100.00;101252.16;6149876;28;20070;-76
2022/12/05 04:13:16;;;;;;;18.17;8.88;;;;;;;0.98;100.00;101238.41;6130010;28;20427;-76
2022/12/05 04:22:58;;;;;;;23.38;9.02;;;;;;;1.00;100.00;101254.03;6121928;28;20032;-77
2022/12/05 04:26:10;;;;;;;27.13;10.02;;;;;;;1.05;100.00;101252.03;6149829;28;20024;-77
2022/12/05 04:29:16;;;;;;;23.33;9.85;;;;;;;0.90;100.00;101224.88;6131401;28;20172;-77
2022/12/05 04:32:13;;;;;;;31.30;10.57;;;;;;;1.11;100.00;101251.75;6147515;28;20056;-76
2022/12/05 04:35:18;;;;;;;24.80;9.85;;;;;;;1.07;100.00;101248.44;6148981;28;20373;-77
2022/12/05 04:38:20;;;;;;;26.85;9.10;;;;;;;1.05;100.00;101246.81;6131326;28;20077;-75
2022/12/05 04:41:25;;;;;;;25.05;8.93;;;;;;;1.00;100.00;101236.59;6149456;28;20024;-76
2022/12/05 04:44:27;;;;;;;22.90;8.02;;;;;;;1.02;100.00;101237.34;6130500;28;20024;-77
2022/12/05 04:47:27;;;;;;;20.80;8.15;;;;;;;1.04;100.00;101239.88;6130668;28;20028;-76
2022/12/05 04:50:23;;;;;;;27.05;8.23;;;;;;;1.07;100.00;101245.81;6131292;28;20023;-76
2022/12/05 04:53:21;;;;;;;20.50;9.35;;;;;;;1.12;100.00;101256.88;6130313;28;20459;-76
2022/12/05 04:56:18;;;;;;;21.58;8.85;;;;;;;1.10;100.00;101256.13;6147869;28;20123;-76
2022/12/05 04:59:13;;;;;;;24.27;9.13;;;;;;;1.05;100.00;101258.09;6148943;28;20036;-75
2022/12/05 05:02:09;;;;;;;29.00;10.15;;;;;;;1.04;100.00;101256.41;6146750;28;20632;-75
2022/12/05 05:05:08;;;;;;;29.90;11.00;;;;;;;1.00;100.00;101241.81;6130940;28;20108;-75
2022/12/05 05:08:04;;;;;;;27.70;10.40;;;;;;;0.96;100.00;101232.41;6148440;28;20035;-75
2022/12/05 05:11:14;;;;;;;26.23;9.77;;;;;;;1.03;100.00;101254.69;6145137;28;20040;-75
2022/12/05 05:14:10;;;;;;;27.48;9.57;;;;;;;1.04;100.00;101256.41;6129766;28;20277;-75
2022/12/05 05:17:05;;;;;;;29.80;10.70;;;;;;;1.03;100.00;101264.31;6148258;28;20082;-74
2022/12/05 05:23:14;;;;;;;24.67;10.48;;;;;;;0.89;100.00;101259.75;6147638;28;20036;-74
2022/12/05 05:26:09;;;;;;;28.80;9.13;;;;;;;0.87;100.00;101258.13;6144675;28;20024;-74
2022/12/05 05:29:05;;;;;;;23.27;8.30;;;;;;;0.97;100.00;101270.69;6147827;28;20146;-74
2022/12/05 05:32:00;;;;;;;23.80;9.77;;;;;;;0.88;100.00;101267.63;6146879;28;20123;-75
2022/12/05 05:34:55;;;;;;;24.03;8.47;;;;;;;0.85;100.00;101273.00;6148405;28;20266;-75
2022/12/05 05:37:51;;;;;;;27.70;9.50;;;;;;;0.69;100.00;101254.59;6147152;28;20452;-74
2022/12/05 05:40:46;;;;;;;23.52;8.95;;;;;;;0.63;100.00;101267.91;6148428;28;20107;-75
2022/12/05 05:43:42;;;;;;;24.93;8.60;;;;;;;0.48;100.00;101272.06;6147229;28;20118;-75
2022/12/05 05:46:38;;;;;;;20.45;9.25;;;;;;;0.40;100.00;101268.09;6148012;28;20036;-73
2022/12/05 05:49:34;;;;;;;22.92;10.13;;;;;;;0.35;100.00;101260.50;6146933;28;20394;-74
2022/12/05 05:52:32;;;;;;;26.67;9.13;;;;;;;0.31;100.00;101274.56;6146771;28;20039;-74
2022/12/05 05:55:27;;;;;;;26.17;10.07;;;;;;;0.22;100.00;101259.31;6147996;28;20107;-72
2022/12/05 05:58:22;;;;;;;17.70;7.95;;;;;;;0.33;100.00;101271.88;6147216;28;20521;-72
2022/12/05 06:01:21;;;;;;;20.00;7.33;;;;;;;0.31;100.00;101276.31;6147163;28;20032;-73
2022/12/05 06:04:16;;;;;;;24.42;8.13;;;;;;;0.17;100.00;101255.22;6146953;28;20048;-71
2022/12/05 06:07:12;;;;;;;21.23;7.33;;;;;;;0.27;100.00;101272.16;6146191;28;20032;-74
2022/12/05 06:10:08;;;;;;;23.80;7.83;;;;;;;0.26;100.00;101262.66;6143710;28;20541;-72
2022/12/05 06:13:03;;;;;;;20.30;7.40;;;;;;;0.33;100.00;101266.66;6144508;28;20043;-73
2022/12/05 06:15:58;;;;;;;23.20;8.30;;;;;;;0.18;100.00;101238.66;6146804;28;20031;-74
2022/12/05 06:18:53;;;;;;;25.03;8.80;;;;;;;0.25;100.00;101250.50;6146998;28;20145;-75
2022/12/05 06:21:49;;;;;;;22.10;8.17;;;;;;;0.22;100.00;101264.53;6146187;28;20400;-73
2022/12/05 06:24:44;;;;;;;22.40;8.07;;;;;;;0.22;100.00;101242.84;6147065;28;20330;-72
2022/12/05 06:27:40;;;;;;;28.63;8.33;;;;;;;0.27;100.00;101266.97;6146296;28;20040;-74
2022/12/05 06:30:37;;;;;;;21.40;7.50;;;;;;;0.18;100.00;101243.88;6147383;28;20035;-75
2022/12/05 06:33:32;;;;;;;24.48;7.53;;;;;;;0.36;100.00;101266.53;6146262;28;20141;-74
2022/12/05 06:36:28;;;;;;;21.17;7.90;;;;;;;0.32;100.00;101267.59;6145479;28;20465;-73
2022/12/05 06:39:24;;;;;;;22.75;8.77;;;;;;;0.20;100.00;101255.09;6128277;28;20115;-75
2022/12/05 06:42:21;;;;;;;29.73;10.50;;;;;;;0.23;100.00;101260.16;6145464;28;20718;-75
2022/12/05 06:45:16;;;;;;;22.08;7.93;;;;;;;0.27;100.00;101267.78;6146181;28;20277;-75
2022/12/05 06:48:11;;;;;;;20.37;7.47;;;;;;;0.17;100.00;101265.66;6145798;28;20028;-74
2022/12/05 06:51:11;;;;;;;21.83;7.70;;;;;;;0.25;100.00;101279.19;6146049;28;20035;-73
2022/12/05 06:54:06;;;;;;;17.73;7.45;;;;;;;0.17;100.00;101266.50;6145376;28;20032;-73
2022/12/05 06:57:01;;;;;;;21.23;8.20;;;;;;;0.22;100.00;101284.56;6145808;28;20370;-74
2022/12/05 07:03:10;;;;;;;22.75;7.75;;;;;;;0.19;100.00;101292.53;6144935;28;20070;-75
2022/12/05 07:06:06;;;;;;;17.50;8.80;;;;;;;0.08;100.00;101279.94;6146458;28;20032;-74
2022/12/05 07:09:02;;;;;;;21.17;8.38;;;;;;;0.10;100.00;101285.09;6145392;28;20766;-74
2022/12/05 07:11:58;;;;;;;24.35;7.85;;;;;;;0.05;100.00;101276.63;6126801;28;20032;-74
2022/12/05 07:14:53;;;;;;;22.23;8.97;;;;;;;0.02;100.00;101287.16;6145720;28;20661;-75
2022/12/05 07:17:48;;;;;;;18.13;7.57;;;;;;;0.03;100.00;101281.06;6145636;28;20031;-72
2022/12/05 07:20:44;;;;;;;20.10;7.13;;;;;;;0.11;100.00;101286.78;6146251;28;20141;-74
2022/12/05 07:23:40;;;;;;;21.58;8.40;;;;;;;0.08;100.00;101289.53;6145432;28;20028;-73
2022/12/05 07:26:36;;;;;;;19.52;7.38;;;;;;;-0.02;100.00;101274.25;6144760;28;20024;-74
2022/12/05 07:29:32;;;;;;;23.00;8.50;;;;;;;0.00;100.00;101287.25;6145680;28;20024;-74
2022/12/05 07:32:31;;;;;;;24.40;8.03;;;;;;;0.05;100.00;101302.69;6145252;28;20469;-74
2022/12/05 07:35:26;;;;;;;24.48;7.93;;;;;;;0.00;100.00;101295.88;6145513;28;20409;-73
2022/12/05 07:38:21;;;;;;;23.20;8.53;;;;;;;0.04;100.00;101296.63;6144666;28;20077;-74
2022/12/05 07:41:21;;;;;;;23.53;8.87;;;;;;;0.12;100.00;101299.75;6145860;28;20097;-74
2022/12/05 07:44:16;;;;;;;22.98;8.45;;;;;;;0.09;100.00;101304.22;6144838;28;20118;-73
2022/12/05 07:47:11;;;;;;;21.50;7.72;;;;;;;0.09;100.00;101299.00;6144993;28;20059;-74
2022/12/05 07:50:07;;;;;;;22.47;8.53;;;;;;;-0.05;100.00;101290.03;6145929;28;20469;-74
2022/12/05 07:53:03;;;;;;;19.25;6.90;;;;;;;-0.03;100.00;101295.19;6144657;28;20040;-74
2022/12/05 07:55:59;;;;;;;16.83;7.40;;;;;;;0.05;100.00;101307.91;6145646;28;20062;-74
2022/12/05 07:58:54;;;;;;;22.13;8.85;;;;;;;-0.07;100.00;101304.91;6127182;28;20074;-74
2022/12/05 08:01:50;;;;;;;17.70;7.33;;;;;;;0.06;100.00;101309.56;6144565;28;20071;-74
2022/12/05 08:04:45;;;;;;;22.40;8.38;;;;;;;0.06;100.00;101312.19;6145721;28;20060;-73
2022/12/05 08:07:40;;;;;;;19.47;7.47;;;;;;;0.15;100.00;101309.19;6145288;28;20060;-75
2022/12/05 08:10:36;;;;;;;19.27;7.75;;;;;;;0.18;100.00;101314.28;6145420;28;20051;-74
2022/12/05 08:13:32;;;;;;;18.90;8.43;;;;;;;0.09;100.00;101310.31;6145022;28;20028;-74
2022/12/05 08:16:29;;;;;;;20.42;7.88;;;;;;;0.09;100.00;101315.50;6145141;28;20498;-75
2022/12/05 08:19:24;;;;;;;17.75;6.93;;;;;;;0.05;100.00;101307.91;6144337;28;20133;-74
2022/12/05 08:22:19;;;;;;;18.23;6.73;;;;;;;0.13;100.00;101324.91;6126377;28;20044;-74
2022/12/05 08:25:15;;;;;;;19.50;7.60;;;;;;;0.11;100.00;101320.69;6145402;28;20446;-75
2022/12/05 08:28:10;;;;;;;19.85;6.97;;;;;;;-0.10;100.00;101289.38;6145089;28;20090;-75
2022/12/05 08:31:11;;;;;;;18.67;7.57;;;;;;;0.17;100.00;101320.41;6147831;28;20468;-75
2022/12/05 08:34:08;;;;;;;17.33;6.72;;;;;;;0.20;100.00;101333.31;6138710;28;20036;-75
2022/12/05 08:37:03;;;;;;;18.80;6.60;;;;;;;0.26;100.00;101325.22;6123750;28;20609;-75
2022/12/05 08:39:59;;;;;;;15.10;5.93;;;;;;;0.20;100.00;101312.44;6149629;28;20031;-75
2022/12/05 08:42:54;;;;;;;17.70;6.63;;;;;;;0.13;100.00;101314.47;6149100;28;20089;-76
2022/12/05 08:45:51;;;;;;;19.27;7.30;;;;;;;0.09;100.00;101314.66;6148192;28;20081;-76
2022/12/05 08:48:46;;;;;;;18.80;7.00;;;;;;;0.08;100.00;101323.41;6149362;28;20103;-76
2022/12/05 08:51:42;;;;;;;16.67;6.67;;;;;;;0.09;100.00;101325.09;6149142;28;20039;-77
2022/12/05 08:54:38;;;;;;;17.45;6.75;;;;;;;0.12;100.00;101314.53;6158803;28;20032;-76
2022/12/05 08:57:33;;;;;;;20.63;7.63;;;;;;;0.35;100.00;101327.44;6146511;28;20468;-76
2022/12/05 09:00:28;;;;;;;18.87;6.77;;;;;;;0.40;100.00;101323.72;6148865;28;20286;-76
2022/12/05 09:03:23;;;;;;;18.10;6.47;;;;;;;0.28;100.00;101321.63;6147772;28;20032;-76
2022/12/05 09:06:21;;;;;;;13.97;6.93;;;;;;;0.31;100.00;101320.66;6148141;28;20040;-76
2022/12/05 09:09:16;;;;;;;20.73;7.35;;;;;;;0.31;100.00;101326.72;6149082;28;20028;-76
2022/12/05 09:12:12;;;;;;;18.80;6.80;;;;;;;0.32;100.00;101330.19;6146365;28;20170;-76
2022/12/05 09:15:10;;;;;;;16.20;6.68;;;;;;;0.32;100.00;101314.53;6148558;28;20074;-76
2022/12/05 09:18:05;;;;;;;15.52;6.68;;;;;;;0.43;100.00;101325.34;6130756;28;20020;-76
2022/12/05 09:21:08;;;;;;;20.95;7.80;;;;;;;0.53;100.00;101329.25;6148370;28;20035;-75
2022/12/05 09:24:03;;;;;;;28.55;9.35;;;;;;;0.46;100.00;101318.22;6144757;28;20111;-76
2022/12/05 09:26:58;;;;;;;15.80;6.47;;;;;;;0.63;100.00;101327.06;6147930;28;20088;-74
2022/12/05 09:29:54;;;;;;;22.00;9.13;;;;;;;0.36;100.00;101314.31;6147569;28;20313;-74
2022/12/05 09:32:49;;;;;;;17.83;8.63;;;;;;;0.39;100.00;101334.22;6147788;28;20042;-74
2022/12/05 09:35:44;;;;;;;23.67;8.67;;;;;;;0.19;100.00;101321.19;6148279;28;20032;-73
2022/12/05 09:38:40;;;;;;;19.90;8.60;;;;;;;-0.06;100.00;101282.28;6147943;28;20039;-74
2022/12/05 09:42:04;;;;;;;20.40;9.13;;;;;;;0.20;100.00;101317.66;6147960;28;20480;-74
2022/12/05 09:45:22;;;;;;;18.02;7.13;;;;;;;0.20;100.00;101326.34;6147225;28;20131;-73
2022/12/05 09:48:19;;;;;;;18.00;7.95;;;;;;;0.22;100.00;101326.28;6129952;28;20026;-73
2022/12/05 09:51:15;;;;;;;18.23;7.55;;;;;;;0.25;100.00;101320.91;6148075;28;20032;-73
2022/12/05 09:54:11;;;;;;;18.70;7.15;;;;;;;0.23;100.00;101309.72;6128561;28;20036;-73
2022/12/05 09:57:09;;;;;;;19.83;7.60;;;;;;;0.19;100.00;101302.94;6147734;28;20369;-73
2022/12/05 10:00:07;;;;;;;17.40;6.47;;;;;;;0.38;100.00;101335.16;6129632;28;20051;-72
2022/12/05 10:03:21;;;;;;;17.73;7.50;;;;;;;0.31;100.00;101328.47;6139940;28;20043;-72
2022/12/05 10:06:22;;;;;;;17.73;6.65;;;;;;;0.31;100.00;101329.34;6147158;28;20399;-72
2022/12/05 10:09:43;;;;;;;17.52;7.38;;;;;;;0.38;100.00;101322.94;6147528;28;20089;-72
2022/12/05 10:12:55;;;;;;;14.10;6.55;;;;;;;0.46;100.00;101322.63;6128656;28;20120;-71
2022/12/05 10:15:59;;;;;;;15.05;7.35;;;;;;;0.45;100.00;101315.69;6148234;28;20430;-72
2022/12/05 10:18:58;;;;;;;17.65;6.40;;;;;;;0.29;100.00;101310.31;6144736;28;20035;-71
2022/12/05 10:22:01;;;;;;;18.20;6.07;;;;;;;0.41;100.00;101301.94;6128674;28;20036;-72
2022/12/05 10:25:03;;;;;;;16.77;7.45;;;;;;;0.26;100.00;101288.72;6129220;28;20434;-71
2022/12/05 10:27:59;;;;;;;;;;;;;;;0.48;100.00;101321.63;6116414;28;20078;-71
2022/12/05 10:30:55;;;;;;;12.35;5.45;;;;;;;0.41;100.00;101308.91;6115690;28;19907;-71
2022/12/05 10:33:57;;;;;;;15.45;6.63;;;;;;;0.33;100.00;101300.56;6128098;28;20035;-72
2022/12/05 10:36:57;;;;;;;12.80;5.22;;;;;;;0.49;100.00;101309.44;6121101;28;20506;-71
2022/12/05 10:39:54;;;;;;;14.50;6.05;;;;;;;0.31;100.00;101312.84;6128783;28;20043;-72
2022/12/05 10:42:49;;;;;;;18.92;6.63;;;;;;;0.47;100.00;101324.28;6145876;28;20039;-72
2022/12/05 10:45:46;;;;;;;15.88;6.28;;;;;;;0.46;100.00;101320.00;6128432;28;20036;-72
2022/12/05 10:48:41;;;;;;;15.52;5.65;;;;;;;0.44;100.00;101303.56;6128553;28;20028;-73
2022/12/05 10:51:37;;;;;;;18.40;6.47;;;;;;;0.41;100.00;101324.56;6146526;28;20078;-73
2022/12/05 10:54:45;;;;;;;20.20;8.30;;;;;;;0.38;100.00;101307.28;6131951;28;20515;-73
2022/12/05 10:57:40;;;;;;;18.73;8.02;;;;;;;0.49;100.00;101306.84;6128632;28;20110;-73
2022/12/05 11:00:36;;;;;;;16.73;7.03;;;;;;;0.70;100.00;101305.03;6146383;28;20031;-73
2022/12/05 11:03:37;;;;;;;10.25;4.97;;;;;;;0.68;100.00;101289.41;6145935;28;20036;-73
2022/12/05 11:06:32;;;;;;;13.50;6.15;;;;;;;0.63;100.00;101296.59;6127587;28;20392;-73
2022/12/05 11:09:30;;;;;;;12.95;4.93;;;;;;;0.58;100.00;101309.88;6143422;28;20039;-73
2022/12/05 11:12:37;;;;;;;12.27;6.30;;;;;;;0.45;100.00;101287.00;6126778;28;20463;-74
2022/12/05 11:15:32;;;;;;;12.45;4.70;;;;;;;0.54;100.00;101276.16;6128332;28;20032;-73
2022/12/05 11:18:33;;;;;;;10.17;4.93;;;;;;;0.66;100.00;101291.25;6146208;28;20461;-75
2022/12/05 11:21:41;;;;;;;14.15;5.32;;;;;;;0.77;100.00;101289.00;6144961;28;20378;-74
2022/12/05 11:24:37;;;;;;;9.90;5.13;;;;;;;0.87;100.00;101305.94;6145904;28;20374;-75
2022/12/05 11:27:33;;;;;;;11.88;4.38;;;;;;;0.69;100.00;101290.25;6120771;28;20469;-75
2022/12/05 11:30:28;;;;;;;11.93;4.60;;;;;;;0.83;100.00;101307.00;6144858;28;20032;-75
2022/12/05 11:33:26;;;;;;;13.80;5.22;;;;;;;0.72;100.00;101280.53;6143212;28;20032;-75
2022/12/05 11:36:23;;;;;;;15.70;5.55;;;;;;;0.58;100.00;101272.50;6145126;28;20036;-75
2022/12/05 11:39:18;;;;;;;14.35;6.78;;;;;;;0.81;100.00;101295.78;6128036;28;20039;-76
2022/12/05 11:42:47;;;;;;;10.57;4.18;;;;;;;0.72;100.00;101290.13;6145128;28;20027;-76
2022/12/05 11:46:25;;;;;;;10.82;5.20;;;;;;;0.49;100.00;101267.69;6104741;28;20043;-76
2022/12/05 11:49:36;;;;;;;15.27;5.32;;;;;;;0.66;100.00;101295.63;6046455;28;20044;-77
2022/12/05 11:52:55;;;;;;;9.85;3.65;;;;;;;0.68;100.00;101294.63;6125428;28;20062;-76
2022/12/05 11:56:28;;;;;;;9.93;4.20;;;;;;;0.67;100.00;101269.47;6143709;28;20040;-77
2022/12/05 11:59:30;;;;;;;13.57;6.18;;;;;;;0.75;100.00;101288.22;6126524;28;20366;-76
2022/12/05 12:02:42;;;;;;;14.13;6.45;;;;;;;0.86;100.00;101293.81;6136066;28;20036;-76
2022/12/05 12:05:59;;;;;;;14.38;5.10;;;;;;;0.91;100.00;101289.22;6118086;28;20415;-76
2022/12/05 12:09:15;;;;;;;10.07;4.28;;;;;;;0.95;100.00;101282.09;6150707;28;20047;-76
2022/12/05 12:12:32;;;;;;;10.13;4.50;;;;;;;0.96;100.00;101289.84;6143353;28;20028;-75
2022/12/05 12:16:04;;;;;;;11.68;5.97;;;;;;;0.90;100.00;101277.09;6149913;28;20107;-75
2022/12/05 12:19:05;;;;;;;9.82;4.13;;;;;;;0.89;100.00;101288.47;6144046;28;20043;-77
2022/12/05 12:22:11;;;;;;;9.88;3.85;;;;;;;0.94;100.00;101278.66;6148460;28;20032;-76
2022/12/05 12:25:12;;;;;;;9.02;4.05;;;;;;;1.07;100.00;101290.19;6149300;28;20032;-76
2022/12/05 12:28:41;;;;;;;8.75;3.47;;;;;;;1.04;100.00;101287.72;6149886;28;20035;-75
2022/12/05 12:31:54;;;;;;;7.82;3.80;;;;;;;1.01;100.00;101287.88;6131727;28;20028;-76
2022/12/05 12:35:16;;;;;;;10.98;3.83;;;;;;;0.97;100.00;101281.13;6148847;28;20031;-75
2022/12/05 12:38:30;;;;;;;10.32;4.68;;;;;;;1.00;100.00;101288.81;6137659;28;20031;-76
2022/12/05 12:41:56;;;;;;;7.93;3.30;;;;;;;1.10;100.00;101282.22;6149898;28;20101;-76
2022/12/05 12:45:01;;;;;;;10.50;3.60;;;;;;;1.11;100.00;101286.50;6149649;28;20074;-77
2022/12/05 12:48:19;;;;;;;10.20;4.68;;;;;;;1.18;100.00;101272.28;6131429;28;20437;-76
2022/12/05 12:51:14;;;;;;;12.20;3.95;;;;;;;1.21;100.00;101266.06;6149698;28;20456;-76
2022/12/05 12:54:29;;;;;;;8.05;4.00;;;;;;;1.22;100.00;101267.75;6124873;28;20047;-77
2022/12/05 12:57:39;;;;;;;10.90;4.40;;;;;;;1.17;100.00;101270.56;6130968;28;20028;-77
2022/12/05 13:00:46;;;;;;;13.55;7.07;;;;;;;1.11;100.00;101273.47;6131102;28;20036;-77
2022/12/05 13:03:46;;;;;;;11.80;4.47;;;;;;;0.97;100.00;101257.63;6148262;28;20101;-77
2022/12/05 13:06:47;;;;;;;9.90;4.07;;;;;;;1.18;100.00;101263.59;6149491;28;20073;-78
2022/12/05 13:09:47;;;;;;;8.02;3.65;;;;;;;1.04;100.00;101263.38;6126946;28;20036;-77
2022/12/05 13:12:43;;;;;;;9.23;4.18;;;;;;;1.03;100.00;101256.50;6145457;28;20109;-77
2022/12/05 13:15:43;;;;;;;20.98;10.95;;;;;;;0.78;100.00;101240.28;6148575;28;20036;-77
2022/12/05 13:18:39;;;;;;;11.23;4.95;;;;;;;1.02;100.00;101284.34;6148571;28;20039;-77
2022/12/05 13:21:34;;;;;;;14.17;6.13;;;;;;;0.99;100.00;101279.28;6148621;28;20072;-76
2022/12/05 13:24:29;;;;;;;12.15;4.65;;;;;;;0.89;100.00;101266.72;6147983;28;20274;-76
2022/12/05 13:27:26;;;;;;;8.67;3.30;;;;;;;0.83;100.00;101246.97;6146907;28;20036;-76
2022/12/05 13:30:26;;;;;;;8.93;3.55;;;;;;;1.01;100.00;101261.75;6130498;28;20354;-77
2022/12/05 13:33:25;;;;;;;9.52;4.15;;;;;;;0.97;100.00;101269.81;6147810;28;20024;-76
2022/12/05 13:42:59;;;;;;;9.60;4.43;;;;;;;1.03;100.00;101270.38;6147539;28;20056;-75
2022/12/05 13:46:09;;;;;;;12.35;5.30;;;;;;;1.11;100.00;101278.69;6143531;28;20489;-77
2022/12/05 13:49:27;;;;;;;10.88;6.00;;;;;;;0.90;100.00;101265.78;6129993;28;20028;-76
2022/12/05 13:52:29;;;;;;;13.43;5.47;;;;;;;0.91;100.00;101294.44;6147449;28;20024;-77
2022/12/05 13:55:38;;;;;;;12.25;4.75;;;;;;;0.79;100.00;101278.50;6129988;28;20036;-77
2022/12/05 13:58:43;;;;;;;16.95;5.10;;;;;;;0.78;100.00;101266.38;6117885;28;20511;-77
2022/12/05 14:01:45;;;;;;;13.15;4.35;;;;;;;1.05;100.00;101288.59;6138548;28;20048;-77
2022/12/05 14:04:45;;;;;;;11.43;4.05;;;;;;;1.17;100.00;101283.63;6145419;28;20504;-77